createdAt,value
2023-01-01T00:00:25.270Z,67.00
2023-01-01T00:01:24.696Z,67.11
2023-01-01T00:02:24.539Z,66.37
2023-01-01T00:03:25.668Z,66.47
2023-01-01T00:04:24.819Z,66.57
2023-01-01T00:05:24.987Z,66.37
2023-01-01T00:06:27.171Z,66.67
2023-01-01T00:07:25.296Z,65.76
2023-01-01T00:08:25.445Z,65.36
2023-01-01T00:09:25.606Z,65.86
2023-01-01T00:10:25.771Z,65.96
2023-01-01T00:11:27.667Z,66.47
2023-01-01T00:12:28.149Z,66.16
2023-01-01T00:13:26.390Z,66.27
2023-01-01T00:14:27.150Z,66.27
2023-01-01T00:15:27.691Z,66.57
2023-01-01T00:16:26.855Z,65.56
2023-01-01T00:17:26.978Z,66.16
2023-01-01T00:18:27.087Z,65.22
2023-01-01T00:19:27.253Z,65.25
2023-01-01T00:20:34.666Z,65.83
2023-01-01T00:21:29.623Z,66.37
2023-01-01T00:22:53.327Z,66.27
2023-01-01T00:23:29.986Z,66.30
2023-01-01T00:24:28.148Z,66.27
2023-01-01T00:25:29.160Z,66.50
2023-01-01T00:26:34.470Z,66.37
2023-01-01T00:27:31.692Z,65.86
2023-01-01T00:28:28.904Z,66.16
2023-01-01T00:29:28.989Z,65.36
2023-01-01T00:30:30.158Z,65.76
2023-01-01T00:31:30.213Z,66.16
2023-01-01T00:32:29.490Z,65.86
2023-01-01T00:33:29.660Z,66.37
2023-01-01T00:34:29.860Z,65.56
2023-01-01T00:35:30.032Z,66.37
2023-01-01T00:36:30.214Z,65.79
2023-01-01T00:37:30.393Z,65.86
2023-01-01T00:38:31.159Z,65.76
2023-01-01T00:39:30.842Z,65.25
2023-01-01T00:40:31.653Z,65.45
2023-01-01T00:41:32.200Z,65.45
2023-01-01T00:42:31.330Z,64.95
2023-01-01T00:43:31.482Z,64.95
2023-01-01T00:44:31.629Z,64.95
2023-01-01T00:45:31.845Z,65.05
2023-01-01T00:46:32.658Z,65.15
2023-01-01T00:47:33.168Z,64.54
2023-01-01T00:48:32.282Z,64.51
2023-01-01T00:49:32.479Z,64.95
2023-01-01T00:50:33.523Z,65.05
2023-01-01T00:51:36.929Z,64.75
2023-01-01T00:52:33.942Z,64.64
2023-01-01T00:53:33.067Z,64.64
2023-01-01T00:54:34.529Z,64.85
2023-01-01T00:55:33.417Z,64.75
2023-01-01T00:56:34.158Z,65.25
2023-01-01T00:57:35.184Z,64.95
2023-01-01T00:58:34.595Z,64.85
2023-01-01T00:59:34.697Z,64.34
2023-01-01T01:00:34.720Z,64.95
2023-01-01T01:01:35.418Z,64.54
2023-01-01T01:02:34.615Z,64.78
2023-01-01T01:03:34.662Z,65.08
2023-01-01T01:04:34.810Z,64.47
2023-01-01T01:05:35.660Z,64.78
2023-01-01T01:06:35.163Z,64.37
2023-01-01T01:07:35.304Z,64.67
2023-01-01T01:08:36.028Z,64.37
2023-01-01T01:09:56.669Z,64.27
2023-01-01T01:10:36.925Z,64.67
2023-01-01T01:11:36.046Z,64.30
2023-01-01T01:12:36.207Z,63.89
2023-01-01T01:13:36.379Z,63.76
2023-01-01T01:14:36.583Z,64.17
2023-01-01T01:15:36.767Z,64.07
2023-01-01T01:16:36.998Z,64.30
2023-01-01T01:17:37.705Z,64.40
2023-01-01T01:18:37.243Z,63.89
2023-01-01T01:19:37.414Z,64.20
2023-01-01T01:20:38.206Z,64.00
2023-01-01T01:21:37.767Z,63.79
2023-01-01T01:22:38.716Z,64.40
2023-01-01T01:23:41.034Z,64.30
2023-01-01T01:24:39.204Z,64.23
2023-01-01T01:25:38.462Z,64.10
2023-01-01T01:26:38.719Z,64.20
2023-01-01T01:27:38.771Z,64.23
2023-01-01T01:28:47.110Z,63.82
2023-01-01T01:29:41.139Z,63.69
2023-01-01T01:30:39.283Z,63.49
2023-01-01T01:31:39.462Z,63.59
2023-01-01T01:32:40.676Z,63.39
2023-01-01T01:33:39.829Z,63.49
2023-01-01T01:34:39.993Z,63.49
2023-01-01T01:35:40.714Z,63.59
2023-01-01T01:36:41.222Z,63.62
2023-01-01T01:37:40.468Z,63.72
2023-01-01T01:38:40.691Z,63.42
2023-01-01T01:39:40.855Z,63.18
2023-01-01T01:40:41.024Z,62.98
2023-01-01T01:41:42.181Z,62.78
2023-01-01T01:42:41.319Z,62.98
2023-01-01T01:43:42.186Z,63.39
2023-01-01T01:44:41.706Z,63.59
2023-01-01T01:45:43.723Z,63.29
2023-01-01T01:46:42.538Z,63.52
2023-01-01T01:48:03.181Z,63.52
2023-01-01T01:48:42.438Z,63.42
2023-01-01T01:49:42.605Z,63.72
2023-01-01T01:50:42.767Z,63.62
2023-01-01T01:51:42.935Z,63.62
2023-01-01T01:52:43.106Z,63.72
2023-01-01T01:53:43.249Z,63.62
2023-01-01T01:54:43.412Z,64.03
2023-01-01T01:55:43.573Z,63.62
2023-01-01T01:56:43.728Z,63.52
2023-01-01T01:57:43.882Z,63.11
2023-01-01T01:58:44.040Z,63.49
2023-01-01T01:59:44.211Z,63.32
2023-01-01T02:00:45.214Z,63.42
2023-01-01T02:01:45.292Z,63.52
2023-01-01T02:02:46.794Z,63.32
2023-01-01T02:03:44.847Z,63.01
2023-01-01T02:04:45.234Z,63.72
2023-01-01T02:05:45.130Z,63.11
2023-01-01T02:06:45.243Z,63.18
2023-01-01T02:07:47.220Z,62.57
2023-01-01T02:08:45.716Z,62.88
2023-01-01T02:09:46.717Z,63.52
2023-01-01T02:10:46.077Z,63.42
2023-01-01T02:11:46.732Z,62.60
2023-01-01T02:12:47.735Z,62.71
2023-01-01T02:13:46.581Z,62.81
2023-01-01T02:14:46.741Z,63.11
2023-01-01T02:15:46.950Z,62.71
2023-01-01T02:16:47.010Z,63.11
2023-01-01T02:17:47.196Z,63.11
2023-01-01T02:18:47.398Z,63.65
2023-01-01T02:19:47.583Z,63.14
2023-01-01T02:20:48.732Z,63.65
2023-01-01T02:21:47.982Z,63.34
2023-01-01T02:22:48.171Z,63.92
2023-01-01T02:23:48.356Z,63.45
2023-01-01T02:24:48.565Z,63.34
2023-01-01T02:25:49.755Z,62.94
2023-01-01T02:26:50.195Z,63.04
2023-01-01T02:27:49.098Z,62.60
2023-01-01T02:28:49.283Z,62.60
2023-01-01T02:29:49.453Z,63.14
2023-01-01T02:30:49.674Z,62.43
2023-01-01T02:31:49.782Z,63.04
2023-01-01T02:32:50.736Z,63.04
2023-01-01T02:33:50.133Z,62.94
2023-01-01T02:34:50.310Z,62.74
2023-01-01T02:35:51.054Z,62.84
2023-01-01T02:36:50.703Z,63.14
2023-01-01T02:37:50.861Z,62.53
2023-01-01T02:38:51.054Z,62.53
2023-01-01T02:39:51.758Z,62.84
2023-01-01T02:40:51.429Z,62.43
2023-01-01T02:41:52.194Z,62.63
2023-01-01T02:42:53.701Z,62.94
2023-01-01T02:43:51.868Z,62.74
2023-01-01T02:44:52.694Z,62.43
2023-01-01T02:45:52.264Z,62.74
2023-01-01T02:46:54.062Z,62.84
2023-01-01T02:47:52.563Z,62.33
2023-01-01T02:48:52.730Z,62.43
2023-01-01T02:49:52.955Z,62.74
2023-01-01T02:50:53.111Z,62.53
2023-01-01T02:51:53.385Z,62.94
2023-01-01T02:52:55.060Z,62.84
2023-01-01T02:53:54.202Z,62.84
2023-01-01T02:54:54.700Z,62.74
2023-01-01T02:55:53.857Z,62.94
2023-01-01T02:56:54.077Z,62.43
2023-01-01T02:57:54.144Z,62.63
2023-01-01T02:58:54.341Z,62.84
2023-01-01T02:59:54.517Z,62.84
2023-01-01T03:00:54.660Z,62.94
2023-01-01T03:01:56.299Z,62.84
2023-01-01T03:02:55.132Z,63.04
2023-01-01T03:03:55.147Z,62.74
2023-01-01T03:04:55.316Z,62.94
2023-01-01T03:05:55.452Z,62.94
2023-01-01T03:06:55.583Z,63.14
2023-01-01T03:07:55.757Z,63.04
2023-01-01T03:08:57.703Z,62.94
2023-01-01T03:09:56.741Z,62.63
2023-01-01T03:10:57.238Z,63.04
2023-01-01T03:11:57.249Z,63.14
2023-01-01T03:12:56.752Z,63.14
2023-01-01T03:13:56.674Z,62.84
2023-01-01T03:14:56.850Z,62.63
2023-01-01T03:15:57.054Z,62.91
2023-01-01T03:16:57.227Z,63.14
2023-01-01T03:17:57.389Z,62.63
2023-01-01T03:18:57.569Z,62.94
2023-01-01T03:19:58.720Z,62.74
2023-01-01T03:20:58.568Z,63.04
2023-01-01T03:21:58.207Z,62.94
2023-01-01T03:22:58.374Z,63.14
2023-01-01T03:23:58.549Z,62.53
2023-01-01T03:24:59.715Z,62.74
2023-01-01T03:25:58.843Z,62.94
2023-01-01T03:26:59.006Z,63.14
2023-01-01T03:27:59.150Z,63.04
2023-01-01T03:29:00.210Z,63.04
2023-01-01T03:29:59.504Z,63.04
2023-01-01T03:31:00.351Z,62.81
2023-01-01T03:31:59.770Z,63.04
2023-01-01T03:33:00.758Z,62.94
2023-01-01T03:34:00.136Z,63.04
2023-01-01T03:35:00.315Z,63.34
2023-01-01T03:36:01.246Z,63.34
2023-01-01T03:37:00.630Z,63.85
2023-01-01T03:38:03.716Z,63.75
2023-01-01T03:39:01.713Z,63.95
2023-01-01T03:40:01.134Z,64.09
2023-01-01T03:41:01.323Z,63.78
2023-01-01T03:42:02.215Z,63.98
2023-01-01T03:43:01.760Z,63.24
2023-01-01T03:44:01.811Z,63.85
2023-01-01T03:45:04.217Z,63.85
2023-01-01T03:46:02.713Z,64.29
2023-01-01T03:47:02.408Z,64.18
2023-01-01T03:48:02.518Z,63.75
2023-01-01T03:49:23.677Z,63.95
2023-01-01T03:50:03.966Z,63.98
2023-01-01T03:51:03.108Z,63.75
2023-01-01T03:52:03.304Z,64.06
2023-01-01T03:53:03.491Z,64.29
2023-01-01T03:54:03.642Z,64.29
2023-01-01T03:55:03.825Z,64.15
2023-01-01T03:56:04.717Z,64.49
2023-01-01T03:57:04.237Z,64.79
2023-01-01T03:58:04.389Z,64.70
2023-01-01T03:59:04.544Z,64.90
2023-01-01T04:00:05.716Z,64.70
2023-01-01T04:01:05.920Z,64.90
2023-01-01T04:02:05.207Z,65.00
2023-01-01T04:03:06.810Z,64.70
2023-01-01T04:04:05.579Z,64.79
2023-01-01T04:05:05.639Z,64.59
2023-01-01T04:06:05.808Z,64.59
2023-01-01T04:07:14.811Z,64.49
2023-01-01T04:08:08.127Z,64.70
2023-01-01T04:09:07.228Z,64.90
2023-01-01T04:10:07.224Z,64.79
2023-01-01T04:11:07.227Z,64.59
2023-01-01T04:12:07.767Z,64.87
2023-01-01T04:13:06.929Z,65.10
2023-01-01T04:14:07.175Z,64.70
2023-01-01T04:15:07.767Z,65.00
2023-01-01T04:16:08.313Z,65.20
2023-01-01T04:17:08.281Z,65.23
2023-01-01T04:18:07.853Z,64.90
2023-01-01T04:19:08.081Z,65.30
2023-01-01T04:20:08.327Z,64.90
2023-01-01T04:21:09.265Z,64.90
2023-01-01T04:22:09.263Z,64.90
2023-01-01T04:23:08.825Z,65.07
2023-01-01T04:24:09.760Z,64.56
2023-01-01T04:25:09.196Z,64.76
2023-01-01T04:26:09.391Z,64.56
2023-01-01T04:27:10.264Z,65.00
2023-01-01T04:28:09.714Z,65.20
2023-01-01T04:29:09.928Z,65.10
2023-01-01T04:30:10.118Z,65.37
2023-01-01T04:31:10.357Z,65.20
2023-01-01T04:32:10.535Z,65.30
2023-01-01T04:33:11.233Z,65.20
2023-01-01T04:34:13.231Z,65.30
2023-01-01T04:35:11.105Z,65.88
2023-01-01T04:36:11.810Z,65.61
2023-01-01T04:37:13.662Z,65.41
2023-01-01T04:38:13.592Z,65.30
2023-01-01T04:39:11.830Z,65.71
2023-01-01T04:40:12.041Z,66.02
2023-01-01T04:41:12.245Z,65.71
2023-01-01T04:42:12.410Z,65.51
2023-01-01T04:43:12.610Z,65.68
2023-01-01T04:44:14.729Z,65.81
2023-01-01T04:45:13.024Z,65.61
2023-01-01T04:46:13.234Z,65.41
2023-01-01T04:47:14.266Z,65.58
2023-01-01T04:48:13.573Z,65.71
2023-01-01T04:49:13.782Z,66.32
2023-01-01T04:50:14.732Z,66.22
2023-01-01T04:51:15.735Z,66.52
2023-01-01T04:52:16.093Z,65.91
2023-01-01T04:53:14.452Z,66.12
2023-01-01T04:54:14.646Z,66.49
2023-01-01T04:55:15.740Z,65.81
2023-01-01T04:56:15.015Z,66.29
2023-01-01T04:57:15.159Z,66.52
2023-01-01T04:58:15.340Z,66.52
2023-01-01T04:59:16.241Z,66.72
2023-01-01T05:00:15.653Z,66.12
2023-01-01T05:01:15.989Z,66.63
2023-01-01T05:02:16.182Z,66.93
2023-01-01T05:03:16.129Z,66.60
2023-01-01T05:04:16.292Z,66.52
2023-01-01T05:05:16.783Z,66.42
2023-01-01T05:06:16.587Z,66.63
2023-01-01T05:07:17.602Z,66.12
2023-01-01T05:08:16.898Z,66.72
2023-01-01T05:09:17.041Z,66.22
2023-01-01T05:10:17.185Z,66.52
2023-01-01T05:11:17.317Z,66.22
2023-01-01T05:12:18.288Z,67.33
2023-01-01T05:13:17.709Z,67.33
2023-01-01T05:14:17.836Z,67.03
2023-01-01T05:15:18.292Z,67.03
2023-01-01T05:16:18.386Z,67.33
2023-01-01T05:17:19.741Z,67.44
2023-01-01T05:18:19.291Z,67.33
2023-01-01T05:19:18.718Z,67.54
2023-01-01T05:20:18.876Z,67.24
2023-01-01T05:21:19.055Z,67.33
2023-01-01T05:22:19.236Z,67.13
2023-01-01T05:23:21.103Z,66.93
2023-01-01T05:24:19.617Z,67.24
2023-01-01T05:25:20.281Z,66.72
2023-01-01T05:26:20.322Z,66.86
2023-01-01T05:27:20.321Z,67.54
2023-01-01T05:28:20.364Z,67.64
2023-01-01T05:29:21.752Z,67.77
2023-01-01T05:30:20.755Z,67.74
2023-01-01T05:31:21.857Z,67.54
2023-01-01T05:32:21.080Z,67.54
2023-01-01T05:33:21.747Z,67.54
2023-01-01T05:34:23.254Z,68.08
2023-01-01T05:35:26.195Z,67.74
2023-01-01T05:36:25.244Z,67.67
2023-01-01T05:37:21.858Z,67.74
2023-01-01T05:38:23.748Z,67.74
2023-01-01T05:39:22.264Z,68.05
2023-01-01T05:40:22.418Z,67.84
2023-01-01T05:41:22.602Z,68.15
2023-01-01T05:42:22.783Z,68.15
2023-01-01T05:43:23.783Z,68.38
2023-01-01T05:44:23.153Z,68.18
2023-01-01T05:45:23.356Z,68.38
2023-01-01T05:46:23.514Z,68.49
2023-01-01T05:47:26.853Z,68.49
2023-01-01T05:48:24.872Z,68.49
2023-01-01T05:49:24.749Z,68.38
2023-01-01T05:50:24.155Z,68.59
2023-01-01T05:51:25.258Z,69.09
2023-01-01T05:52:26.674Z,69.09
2023-01-01T05:53:25.664Z,69.20
2023-01-01T05:54:24.806Z,68.99
2023-01-01T05:55:24.948Z,68.99
2023-01-01T05:56:25.754Z,68.92
2023-01-01T05:57:25.244Z,69.09
2023-01-01T05:58:26.250Z,68.89
2023-01-01T05:59:25.647Z,68.92
2023-01-01T06:00:26.790Z,68.99
2023-01-01T06:01:26.784Z,69.02
2023-01-01T06:02:26.902Z,68.99
2023-01-01T06:03:26.317Z,69.09
2023-01-01T06:04:26.564Z,69.30
2023-01-01T06:05:27.253Z,69.84
2023-01-01T06:06:26.784Z,69.23
2023-01-01T06:07:26.968Z,69.43
2023-01-01T06:08:27.757Z,69.13
2023-01-01T06:09:27.310Z,69.53
2023-01-01T06:10:27.492Z,69.53
2023-01-01T06:11:27.671Z,69.74
2023-01-01T06:12:27.858Z,70.21
2023-01-01T06:13:30.251Z,70.04
2023-01-01T06:14:28.276Z,69.84
2023-01-01T06:15:29.252Z,69.74
2023-01-01T06:16:28.780Z,69.84
2023-01-01T06:17:29.752Z,70.25
2023-01-01T06:18:29.796Z,70.45
2023-01-01T06:19:29.202Z,69.94
2023-01-01T06:20:29.392Z,69.84
2023-01-01T06:21:29.611Z,70.14
2023-01-01T06:22:29.833Z,70.45
2023-01-01T06:23:29.982Z,69.94
2023-01-01T06:24:35.514Z,69.94
2023-01-01T06:25:32.365Z,69.84
2023-01-01T06:26:31.320Z,70.55
2023-01-01T06:27:30.828Z,70.04
2023-01-01T06:28:31.807Z,69.81
2023-01-01T06:29:31.197Z,69.81
2023-01-01T06:30:32.284Z,70.45
2023-01-01T06:31:35.617Z,69.74
2023-01-01T06:32:33.780Z,70.42
2023-01-01T06:33:32.774Z,70.25
2023-01-01T06:34:33.264Z,70.35
2023-01-01T06:35:33.132Z,70.52
2023-01-01T06:36:32.532Z,70.72
2023-01-01T06:37:32.695Z,70.35
2023-01-01T06:38:32.849Z,70.86
2023-01-01T06:39:33.015Z,71.06
2023-01-01T06:40:33.768Z,71.16
2023-01-01T06:41:34.267Z,71.87
2023-01-01T06:42:34.069Z,71.06
2023-01-01T06:43:34.770Z,71.26
2023-01-01T06:44:33.941Z,71.77
2023-01-01T06:45:34.766Z,71.47
2023-01-01T06:46:35.346Z,71.06
2023-01-01T06:47:36.265Z,71.47
2023-01-01T06:48:35.341Z,71.87
2023-01-01T06:49:34.927Z,71.87
2023-01-01T06:50:35.772Z,71.87
2023-01-01T06:51:35.294Z,71.87
2023-01-01T06:52:35.469Z,72.28
2023-01-01T06:53:35.667Z,73.09
2023-01-01T06:54:36.769Z,72.99
2023-01-01T06:55:36.041Z,72.38
2023-01-01T06:56:36.825Z,72.89
2023-01-01T06:57:36.362Z,71.87
2023-01-01T06:58:36.566Z,72.99
2023-01-01T06:59:36.760Z,72.48
2023-01-01T07:00:36.962Z,73.19
2023-01-01T07:01:37.264Z,72.48
2023-01-01T07:02:40.483Z,72.89
2023-01-01T07:03:37.546Z,72.69
2023-01-01T07:04:39.270Z,73.13
2023-01-01T07:05:39.770Z,72.78
2023-01-01T07:06:38.324Z,73.02
2023-01-01T07:07:38.263Z,73.19
2023-01-01T07:08:38.442Z,72.99
2023-01-01T07:09:38.822Z,73.09
2023-01-01T07:10:38.728Z,73.09
2023-01-01T07:11:39.787Z,72.89
2023-01-01T07:12:39.324Z,72.89
2023-01-01T07:13:39.258Z,72.78
2023-01-01T07:14:39.452Z,73.09
2023-01-01T07:15:39.686Z,73.19
2023-01-01T07:16:39.853Z,72.99
2023-01-01T07:17:40.328Z,73.09
2023-01-01T07:18:40.775Z,73.19
2023-01-01T07:19:40.318Z,72.78
2023-01-01T07:20:41.280Z,73.50
2023-01-01T07:21:40.672Z,73.19
2023-01-01T07:22:41.343Z,73.09
2023-01-01T07:23:42.779Z,73.60
2023-01-01T07:24:41.141Z,73.39
2023-01-01T07:25:41.819Z,73.39
2023-01-01T07:26:41.495Z,73.09
2023-01-01T07:27:41.652Z,73.60
2023-01-01T07:28:41.800Z,72.99
2023-01-01T07:29:41.970Z,73.50
2023-01-01T07:30:42.230Z,72.89
2023-01-01T07:31:42.906Z,73.30
2023-01-01T07:32:43.324Z,72.58
2023-01-01T07:33:43.336Z,73.50
2023-01-01T07:34:46.103Z,72.89
2023-01-01T07:35:45.111Z,72.78
2023-01-01T07:36:43.258Z,73.19
2023-01-01T07:37:43.431Z,72.89
2023-01-01T07:38:43.592Z,73.19
2023-01-01T07:39:44.380Z,72.78
2023-01-01T07:40:44.013Z,72.78
2023-01-01T07:41:45.348Z,72.48
2023-01-01T07:42:44.356Z,72.99
2023-01-01T07:43:44.507Z,72.99
2023-01-01T07:44:45.320Z,73.50
2023-01-01T07:45:44.863Z,73.19
2023-01-01T07:46:45.080Z,72.69
2023-01-01T07:47:45.209Z,72.89
2023-01-01T07:48:45.374Z,73.09
2023-01-01T07:49:46.295Z,72.58
2023-01-01T07:50:45.685Z,73.50
2023-01-01T07:51:46.330Z,73.09
2023-01-01T07:52:46.335Z,72.99
2023-01-01T07:53:46.093Z,72.58
2023-01-01T07:54:46.274Z,73.50
2023-01-01T07:55:46.443Z,72.48
2023-01-01T07:56:46.630Z,73.50
2023-01-01T07:57:47.290Z,73.80
2023-01-01T07:58:46.936Z,74.21
2023-01-01T07:59:47.086Z,74.01
2023-01-01T08:00:47.833Z,74.24
2023-01-01T08:01:48.403Z,74.55
2023-01-01T08:02:48.481Z,74.24
2023-01-01T08:03:47.911Z,74.55
2023-01-01T08:04:48.058Z,74.01
2023-01-01T08:05:48.250Z,74.01
2023-01-01T08:06:49.294Z,74.24
2023-01-01T08:07:48.546Z,74.62
2023-01-01T08:08:48.719Z,74.52
2023-01-01T08:09:48.854Z,74.92
2023-01-01T08:10:50.293Z,74.92
2023-01-01T08:11:50.790Z,75.06
2023-01-01T08:12:49.262Z,74.55
2023-01-01T08:13:49.422Z,74.21
2023-01-01T08:14:50.334Z,75.37
2023-01-01T08:15:49.714Z,74.65
2023-01-01T08:16:50.794Z,75.57
2023-01-01T08:17:50.835Z,74.72
2023-01-01T08:18:50.861Z,74.96
2023-01-01T08:19:51.330Z,74.76
2023-01-01T08:20:51.306Z,74.96
2023-01-01T08:21:50.824Z,74.82
2023-01-01T08:22:51.788Z,74.72
2023-01-01T08:23:52.730Z,75.63
2023-01-01T08:24:52.333Z,75.73
2023-01-01T08:25:53.291Z,75.94
2023-01-01T08:26:51.778Z,75.67
2023-01-01T08:27:51.957Z,75.57
2023-01-01T08:28:56.963Z,76.07
2023-01-01T08:29:54.351Z,75.77
2023-01-01T08:30:52.491Z,76.59
2023-01-01T08:31:52.654Z,76.07
2023-01-01T08:32:52.857Z,76.59
2023-01-01T08:33:53.064Z,76.79
2023-01-01T08:34:53.219Z,76.99
2023-01-01T08:35:54.466Z,76.68
2023-01-01T08:36:55.811Z,77.50
2023-01-01T08:37:53.811Z,76.99
2023-01-01T08:38:54.018Z,77.09
2023-01-01T08:39:54.806Z,77.09
2023-01-01T08:40:54.306Z,76.07
2023-01-01T08:41:54.491Z,77.20
2023-01-01T08:42:54.689Z,77.40
2023-01-01T08:43:55.300Z,77.29
2023-01-01T08:44:55.794Z,76.48
2023-01-01T08:45:55.191Z,76.59
2023-01-01T08:46:57.339Z,76.48
2023-01-01T08:47:55.534Z,77.40
2023-01-01T08:48:55.687Z,76.59
2023-01-01T08:49:55.903Z,76.59
2023-01-01T08:50:56.111Z,77.20
2023-01-01T08:51:58.319Z,77.44
2023-01-01T08:52:57.343Z,76.68
2023-01-01T08:53:56.652Z,76.48
2023-01-01T08:54:56.848Z,76.59
2023-01-01T08:55:57.083Z,76.38
2023-01-01T08:56:57.262Z,76.48
2023-01-01T08:57:57.468Z,76.18
2023-01-01T08:59:03.896Z,76.38
2023-01-01T09:00:00.343Z,76.38
2023-01-01T09:00:58.802Z,76.18
2023-01-01T09:01:58.927Z,77.29
2023-01-01T09:02:58.392Z,76.59
2023-01-01T09:03:58.548Z,75.98
2023-01-01T09:04:59.300Z,76.38
2023-01-01T09:05:58.867Z,76.38
2023-01-01T09:06:59.165Z,76.79
2023-01-01T09:08:00.247Z,76.48
2023-01-01T09:08:59.857Z,77.40
2023-01-01T09:09:59.550Z,76.99
2023-01-01T09:11:00.347Z,76.59
2023-01-01T09:12:00.868Z,77.40
2023-01-01T09:13:01.802Z,76.07
2023-01-01T09:14:00.207Z,76.59
2023-01-01T09:15:00.383Z,77.20
2023-01-01T09:16:00.730Z,76.28
2023-01-01T09:17:00.707Z,77.36
2023-01-01T09:18:01.804Z,77.36
2023-01-01T09:19:01.804Z,76.48
2023-01-01T09:20:01.246Z,76.48
2023-01-01T09:21:02.816Z,76.04
2023-01-01T09:22:01.611Z,76.14
2023-01-01T09:23:05.808Z,76.18
2023-01-01T09:24:03.823Z,76.25
2023-01-01T09:25:02.885Z,76.04
2023-01-01T09:26:03.363Z,76.25
2023-01-01T09:27:02.685Z,76.14
2023-01-01T09:28:03.844Z,76.14
2023-01-01T09:29:02.996Z,76.25
2023-01-01T09:30:04.817Z,76.25
2023-01-01T09:31:03.857Z,76.34
2023-01-01T09:32:03.648Z,76.14
2023-01-01T09:33:03.768Z,76.25
2023-01-01T09:34:04.852Z,76.55
2023-01-01T09:35:04.146Z,76.45
2023-01-01T09:36:05.314Z,76.34
2023-01-01T09:37:04.527Z,76.34
2023-01-01T09:38:04.865Z,76.55
2023-01-01T09:39:04.915Z,76.45
2023-01-01T09:40:05.364Z,76.04
2023-01-01T09:41:05.295Z,77.26
2023-01-01T09:42:06.355Z,76.55
2023-01-01T09:43:06.365Z,76.14
2023-01-01T09:44:05.805Z,76.55
2023-01-01T09:45:06.039Z,76.34
2023-01-01T09:46:06.360Z,76.65
2023-01-01T09:47:06.369Z,76.65
2023-01-01T09:48:07.355Z,76.65
2023-01-01T09:49:07.310Z,76.14
2023-01-01T09:50:07.810Z,76.55
2023-01-01T09:51:07.111Z,77.26
2023-01-01T09:52:07.887Z,76.34
2023-01-01T09:53:08.320Z,77.06
2023-01-01T09:54:08.328Z,77.26
2023-01-01T09:55:07.728Z,76.45
2023-01-01T09:56:07.920Z,76.41
2023-01-01T09:57:10.488Z,76.14
2023-01-01T09:58:08.861Z,76.34
2023-01-01T09:59:10.313Z,75.49
2023-01-01T10:00:08.574Z,76.10
2023-01-01T10:01:09.891Z,76.31
2023-01-01T10:02:09.177Z,76.51
2023-01-01T10:03:09.171Z,77.26
2023-01-01T10:04:10.391Z,76.34
2023-01-01T10:05:10.322Z,76.41
2023-01-01T10:06:11.319Z,77.33
2023-01-01T10:07:10.378Z,76.25
2023-01-01T10:08:10.076Z,76.51
2023-01-01T10:09:10.861Z,76.01
2023-01-01T10:10:10.388Z,76.01
2023-01-01T10:11:10.560Z,75.56
2023-01-01T10:12:11.686Z,75.29
2023-01-01T10:13:11.880Z,75.76
2023-01-01T10:14:13.335Z,75.60
2023-01-01T10:15:13.334Z,75.70
2023-01-01T10:16:12.374Z,75.70
2023-01-01T10:17:12.849Z,75.70
2023-01-01T10:18:13.823Z,75.76
2023-01-01T10:19:12.068Z,76.07
2023-01-01T10:20:12.264Z,76.17
2023-01-01T10:21:12.414Z,76.41
2023-01-01T10:22:13.344Z,76.21
2023-01-01T10:23:12.759Z,76.17
2023-01-01T10:24:12.969Z,76.28
2023-01-01T10:25:13.896Z,77.29
2023-01-01T10:26:13.322Z,76.41
2023-01-01T10:27:13.501Z,76.41
2023-01-01T10:28:13.667Z,77.12
2023-01-01T10:29:13.851Z,77.02
2023-01-01T10:30:14.032Z,76.88
2023-01-01T10:31:14.945Z,76.82
2023-01-01T10:32:14.418Z,77.43
2023-01-01T10:33:14.595Z,77.43
2023-01-01T10:34:14.880Z,77.33
2023-01-01T10:35:14.960Z,77.22
2023-01-01T10:36:15.162Z,77.53
2023-01-01T10:37:15.322Z,77.33
2023-01-01T10:38:17.333Z,77.97
2023-01-01T10:39:16.837Z,77.53
2023-01-01T10:40:16.835Z,77.83
2023-01-01T10:41:19.831Z,77.67
2023-01-01T10:42:17.155Z,77.73
2023-01-01T10:43:16.283Z,78.08
2023-01-01T10:44:16.465Z,77.94
2023-01-01T10:45:16.693Z,78.08
2023-01-01T10:46:17.452Z,78.04
2023-01-01T10:47:17.910Z,78.24
2023-01-01T10:48:17.833Z,78.44
2023-01-01T10:49:17.511Z,78.78
2023-01-01T10:50:18.838Z,77.97
2023-01-01T10:51:17.873Z,78.48
2023-01-01T10:52:18.878Z,78.04
2023-01-01T10:53:19.876Z,78.04
2023-01-01T10:54:18.371Z,78.44
2023-01-01T10:55:18.532Z,78.17
2023-01-01T10:56:18.748Z,78.48
2023-01-01T10:57:19.885Z,78.85
2023-01-01T10:58:19.146Z,78.75
2023-01-01T10:59:19.306Z,78.04
2023-01-01T11:00:19.482Z,78.38
2023-01-01T11:01:19.738Z,78.75
2023-01-01T11:02:20.020Z,78.44
2023-01-01T11:03:20.052Z,78.38
2023-01-01T11:04:20.893Z,78.58
2023-01-01T11:05:22.515Z,78.48
2023-01-01T11:06:21.583Z,78.68
2023-01-01T11:07:20.724Z,78.89
2023-01-01T11:08:20.885Z,78.58
2023-01-01T11:09:21.876Z,78.48
2023-01-01T11:10:21.875Z,79.19
2023-01-01T11:11:22.208Z,78.89
2023-01-01T11:12:54.558Z,78.99
2023-01-01T11:13:23.839Z,78.78
2023-01-01T11:14:22.063Z,78.85
2023-01-01T11:15:22.221Z,78.68
2023-01-01T11:16:22.950Z,78.89
2023-01-01T11:17:22.900Z,78.58
2023-01-01T11:18:24.344Z,79.09
2023-01-01T11:19:24.346Z,78.68
2023-01-01T11:20:22.970Z,78.75
2023-01-01T11:21:23.844Z,78.85
2023-01-01T11:22:23.395Z,78.95
2023-01-01T11:23:23.547Z,78.44
2023-01-01T11:24:25.213Z,78.95
2023-01-01T11:25:24.391Z,78.75
2023-01-01T11:26:24.021Z,78.75
2023-01-01T11:27:24.202Z,78.58
2023-01-01T11:28:24.889Z,79.09
2023-01-01T11:29:24.526Z,79.19
2023-01-01T11:30:24.687Z,78.58
2023-01-01T11:31:24.828Z,78.99
2023-01-01T11:32:25.023Z,79.09
2023-01-01T11:33:25.897Z,78.99
2023-01-01T11:34:25.457Z,79.09
2023-01-01T11:35:25.623Z,78.78
2023-01-01T11:36:28.355Z,78.99
2023-01-01T11:37:27.349Z,78.89
2023-01-01T11:38:30.225Z,78.99
2023-01-01T11:39:28.216Z,78.99
2023-01-01T11:40:27.213Z,79.09
2023-01-01T11:41:26.600Z,78.99
2023-01-01T11:42:27.384Z,78.99
2023-01-01T11:43:27.881Z,78.89
2023-01-01T11:44:29.359Z,79.19
2023-01-01T11:45:30.653Z,79.60
2023-01-01T11:46:29.379Z,79.39
2023-01-01T11:47:28.393Z,79.09
2023-01-01T11:48:27.930Z,79.70
2023-01-01T11:49:28.114Z,79.74
2023-01-01T11:50:29.239Z,79.39
2023-01-01T11:51:28.543Z,79.50
2023-01-01T11:52:28.725Z,79.39
2023-01-01T11:53:28.874Z,79.29
2023-01-01T11:54:29.858Z,78.99
2023-01-01T11:55:29.264Z,79.70
2023-01-01T11:56:29.434Z,79.29
2023-01-01T11:57:29.558Z,79.29
2023-01-01T11:58:30.706Z,79.80
2023-01-01T11:59:30.897Z,79.63
2023-01-01T12:00:30.156Z,79.53
2023-01-01T12:01:30.487Z,79.74
2023-01-01T12:02:30.592Z,80.04
2023-01-01T12:03:33.828Z,79.90
2023-01-01T12:04:32.906Z,79.94
2023-01-01T12:05:31.202Z,79.80
2023-01-01T12:06:31.414Z,79.94
2023-01-01T12:07:31.628Z,79.84
2023-01-01T12:08:32.800Z,79.94
2023-01-01T12:09:32.861Z,79.74
2023-01-01T12:10:32.154Z,79.90
2023-01-01T12:11:33.374Z,80.41
2023-01-01T12:12:33.404Z,80.04
2023-01-01T12:13:34.370Z,80.45
2023-01-01T12:14:33.224Z,79.74
2023-01-01T12:15:34.102Z,80.04
2023-01-01T12:16:33.344Z,80.24
2023-01-01T12:17:33.526Z,79.74
2023-01-01T12:18:34.380Z,80.24
2023-01-01T12:19:34.898Z,79.80
2023-01-01T12:20:34.901Z,79.84
2023-01-01T12:21:34.332Z,80.00
2023-01-01T12:22:34.549Z,79.80
2023-01-01T12:23:34.715Z,80.04
2023-01-01T12:24:35.431Z,79.94
2023-01-01T12:25:35.419Z,79.84
2023-01-01T12:26:35.906Z,80.00
2023-01-01T12:27:35.462Z,80.15
2023-01-01T12:28:35.621Z,80.00
2023-01-01T12:29:37.363Z,79.60
2023-01-01T12:30:36.909Z,79.84
2023-01-01T12:31:36.940Z,80.00
2023-01-01T12:32:36.422Z,79.63
2023-01-01T12:33:37.406Z,79.84
2023-01-01T12:34:36.900Z,80.45
2023-01-01T12:35:38.903Z,80.11
2023-01-01T12:36:37.877Z,80.15
2023-01-01T12:37:37.290Z,79.90
2023-01-01T12:38:38.402Z,80.11
2023-01-01T12:39:37.686Z,79.63
2023-01-01T12:40:37.866Z,79.70
2023-01-01T12:41:38.872Z,79.94
2023-01-01T12:42:38.871Z,79.60
2023-01-01T12:43:38.395Z,79.70
2023-01-01T12:44:38.554Z,79.80
2023-01-01T12:45:38.722Z,79.80
2023-01-01T12:46:39.001Z,80.11
2023-01-01T12:47:39.870Z,79.63
2023-01-01T12:48:39.270Z,80.55
2023-01-01T12:49:41.373Z,79.63
2023-01-01T12:50:39.622Z,80.55
2023-01-01T12:51:39.942Z,80.45
2023-01-01T12:52:40.912Z,79.94
2023-01-01T12:53:40.419Z,79.43
2023-01-01T12:54:40.329Z,80.11